Pagrindinis puslapis
METAR-TAF:

METAR-TAF

Oro uostai :

Tulkanas, Ekvadoras

platuma: 00-48-34N, ilguma: 077-42-29W, Aukštis: 2941 m

Dabartinis oras

Ataskaita buvo paskelbta 3 valandos ir 56 minutes, ne 21:00 UTC
Vėjas 10 kt iš Rytų/Šiaurės Rytų
Temperatūra 15°C
Drėgmė 67%
Slėgis 1028 hPa
Matomumas 10 km arba daugiau
Su prošvaistėmis ne aukštis 2300 ft
Liūtis kaimynystėje

METAR: SETU 222100Z 06010KT 9999 VCSH BKN023 15/09 Q1028

Laikas: 19:56 (00:56 UTC)


TAF: trūkstamas

Orai ataskaitas ir orų prognozės (METAR, TAF).

turimą stotys yra geltonos ir raudonos taškus žemėlapyje.

Perkelti pele per norėdami pamatyti stoties vardą.

Tada spustelėkite, norėdami matyti oro stebėjimo ir prognozės.

Norėdami pakeisti žemėlapį: spustelėkite ant žalios mygtukų su juodo kryžiaus žemyn,; žalią mygtuką su brūkšneliu, jei norite nutolinti; arba žalių rodyklių gretimoms žemėlapius.


METAR-TAF: